Time;durP1;ratioP1;P1;durP2;ratioP2;P2;SDS_P1;SDS_P2;PMS_P1;PMS_P2;Temp;Humidity;BMP_temperature;BMP_pressure;BME280_temperature;BME280_humidity;BME280_pressure;Samples;Min_cycle;Max_cycle;Signal;HPM_P1;HPM_P2
2021/04/30 00:00:39;;;;;;;4.07;0.98;;;24.50;36.80;;;;;;5081300;28;20472;-57
2021/04/30 00:03:05;;;;;;;0.95;0.80;;;24.50;36.80;;;;;;5083014;28;20040;-58
2021/04/30 00:05:32;;;;;;;1.20;0.80;;;24.50;36.80;;;;;;5068854;28;20035;-56
2021/04/30 00:07:59;;;;;;;1.77;0.90;;;24.50;36.80;;;;;;5083904;28;20477;-56
2021/04/30 00:10:26;;;;;;;1.42;0.90;;;24.50;36.80;;;;;;5076320;28;20055;-55
2021/04/30 00:12:52;;;;;;;2.38;1.10;;;24.50;36.80;;;;;;5085611;28;20024;-56
2021/04/30 00:15:18;;;;;;;1.90;1.00;;;24.50;36.90;;;;;;5084788;28;20649;-58
2021/04/30 00:17:43;;;;;;;1.42;0.85;;;24.50;36.80;;;;;;5083762;28;20043;-54
2021/04/30 00:20:10;;;;;;;2.20;1.00;;;24.50;36.80;;;;;;5083016;28;20142;-61
2021/04/30 00:22:36;;;;;;;1.50;0.90;;;24.50;36.80;;;;;;5076482;28;20482;-52
2021/04/30 00:25:02;;;;;;;1.80;0.90;;;24.50;36.70;;;;;;5083352;28;20024;-56
2021/04/30 00:27:27;;;;;;;1.70;0.85;;;24.50;36.80;;;;;;5083405;28;20028;-60
2021/04/30 00:29:53;;;;;;;1.00;0.80;;;24.50;36.90;;;;;;5083866;28;20036;-57
2021/04/30 00:32:19;;;;;;;1.40;0.90;;;24.50;36.80;;;;;;5064257;28;20427;-62
2021/04/30 00:34:44;;;;;;;1.35;0.90;;;24.50;36.80;;;;;;5084170;28;20017;-57
2021/04/30 00:37:10;;;;;;;1.38;1.00;;;24.50;36.70;;;;;;5085156;28;20035;-54
2021/04/30 00:39:36;;;;;;;1.83;1.00;;;24.50;36.70;;;;;;5087579;28;20418;-55
2021/04/30 00:42:05;;;;;;;1.20;0.90;;;24.60;36.80;;;;;;5087507;28;20032;-54
2021/04/30 00:44:31;;;;;;;1.38;0.93;;;24.50;36.80;;;;;;5083645;28;20109;-57
2021/04/30 00:46:56;;;;;;;1.58;0.80;;;24.50;36.80;;;;;;5080781;28;20063;-54
2021/04/30 00:49:22;;;;;;;0.93;0.77;;;24.50;36.80;;;;;;5086428;28;20469;-57
2021/04/30 00:51:48;;;;;;;1.13;0.80;;;24.50;36.80;;;;;;5086531;28;20107;-54
2021/04/30 00:54:14;;;;;;;1.23;1.05;;;24.50;36.80;;;;;;5086400;28;20328;-56
2021/04/30 00:56:40;;;;;;;1.25;0.80;;;24.40;36.70;;;;;;5083104;28;20370;-59
2021/04/30 00:59:06;;;;;;;1.10;0.80;;;24.40;36.80;;;;;;5079727;28;20462;-58
2021/04/30 01:01:33;;;;;;;1.10;0.80;;;24.40;36.70;;;;;;5074198;28;20067;-56
2021/04/30 01:03:58;;;;;;;1.50;0.73;;;24.40;36.80;;;;;;5070803;28;20442;-55
2021/04/30 01:06:24;;;;;;;1.00;0.80;;;24.40;36.80;;;;;;5084184;28;20031;-55
2021/04/30 01:08:50;;;;;;;1.20;0.70;;;24.40;36.80;;;;;;5085123;28;20085;-56
2021/04/30 01:11:16;;;;;;;1.00;0.90;;;24.30;36.70;;;;;;5085206;28;20086;-54
2021/04/30 01:13:41;;;;;;;1.15;0.80;;;24.30;36.70;;;;;;5086901;28;20470;-57
2021/04/30 01:16:07;;;;;;;1.23;0.80;;;24.30;36.70;;;;;;5087173;28;20034;-59
2021/04/30 01:18:47;;;;;;;0.95;0.80;;;24.30;36.80;;;;;;5083262;28;20123;-55
2021/04/30 01:21:13;;;;;;;;;;;24.30;36.80;;;;;;5087050;28;20062;-55
2021/04/30 01:23:50;;;;;;;2.83;0.88;;;24.30;36.80;;;;;;5087077;28;19927;-53
2021/04/30 01:26:16;;;;;;;0.80;0.70;;;24.30;36.80;;;;;;5083719;28;20032;-53
2021/04/30 01:28:43;;;;;;;1.58;0.70;;;24.20;36.80;;;;;;5073339;28;20099;-55
2021/04/30 01:31:09;;;;;;;0.90;0.70;;;24.20;36.80;;;;;;5084299;28;20046;-54
2021/04/30 01:33:34;;;;;;;0.85;0.70;;;24.20;36.90;;;;;;5085887;28;20024;-51
2021/04/30 01:36:00;;;;;;;1.17;0.70;;;24.20;36.90;;;;;;5083831;28;20387;-55
2021/04/30 01:38:26;;;;;;;1.27;0.80;;;24.10;36.90;;;;;;5086210;28;20204;-58
2021/04/30 01:40:52;;;;;;;0.80;0.70;;;24.10;36.90;;;;;;5084425;28;20027;-53
2021/04/30 01:43:19;;;;;;;0.75;0.70;;;24.10;36.90;;;;;;5086265;28;20151;-59
2021/04/30 01:45:55;;;;;;;1.65;0.90;;;24.00;36.90;;;;;;5072805;28;20210;-54
2021/04/30 01:48:26;;;;;;;1.90;1.05;;;24.10;37.00;;;;;;5082728;28;20122;-58
2021/04/30 01:50:53;;;;;;;0.70;0.70;;;24.00;37.00;;;;;;5083325;28;20031;-55
2021/04/30 01:53:24;;;;;;;0.70;0.60;;;24.00;37.00;;;;;;5085323;28;20062;-56
2021/04/30 01:55:50;;;;;;;0.93;0.70;;;23.90;36.90;;;;;;5085715;28;20478;-57
2021/04/30 01:58:17;;;;;;;1.15;0.70;;;23.90;37.00;;;;;;5086467;28;20024;-58
2021/04/30 02:00:43;;;;;;;0.82;0.70;;;23.90;37.00;;;;;;5084159;28;20107;-49
2021/04/30 02:03:09;;;;;;;1.17;0.80;;;23.90;37.00;;;;;;5081347;28;20726;-52
2021/04/30 02:05:36;;;;;;;1.35;0.80;;;23.90;37.00;;;;;;5085258;28;20031;-55
2021/04/30 02:08:04;;;;;;;1.17;0.70;;;23.90;37.00;;;;;;5086422;28;20020;-55
2021/04/30 02:10:31;;;;;;;1.33;0.80;;;23.90;37.10;;;;;;5085375;28;20028;-53
2021/04/30 02:12:57;;;;;;;0.82;0.70;;;23.90;37.00;;;;;;5082436;28;20028;-55
2021/04/30 02:15:25;;;;;;;1.40;0.80;;;23.80;37.00;;;;;;5085223;28;20020;-56
2021/04/30 02:17:51;;;;;;;1.10;0.70;;;23.80;37.00;;;;;;5084477;28;20101;-56
2021/04/30 02:20:18;;;;;;;1.20;0.73;;;23.80;37.00;;;;;;5081677;28;20044;-55
2021/04/30 02:22:44;;;;;;;1.13;0.80;;;23.80;37.10;;;;;;5083956;28;20435;-54
2021/04/30 02:25:12;;;;;;;1.65;0.85;;;23.80;37.10;;;;;;5084480;28;20045;-56
2021/04/30 02:27:39;;;;;;;0.88;0.70;;;23.70;37.10;;;;;;5086497;28;20463;-55
2021/04/30 02:30:09;;;;;;;1.55;0.90;;;23.70;37.10;;;;;;5079074;28;20032;-55
2021/04/30 02:32:36;;;;;;;0.70;0.70;;;23.70;37.10;;;;;;5078980;28;20046;-55
2021/04/30 02:35:07;;;;;;;0.85;0.70;;;23.70;37.20;;;;;;5075351;28;20030;-52
2021/04/30 02:37:33;;;;;;;2.83;0.95;;;23.70;37.70;;;;;;5070630;28;20110;-54
2021/04/30 02:39:58;;;;;;;0.75;0.70;;;23.70;37.10;;;;;;5084413;28;20533;-53
2021/04/30 02:42:24;;;;;;;1.23;0.77;;;23.70;37.10;;;;;;5085359;28;20111;-54
2021/04/30 02:44:50;;;;;;;1.60;0.90;;;23.60;37.10;;;;;;5083230;28;20038;-58
2021/04/30 02:47:16;;;;;;;1.52;0.80;;;23.60;37.10;;;;;;5085206;28;20149;-50
2021/04/30 02:49:47;;;;;;;0.70;0.70;;;23.60;37.20;;;;;;5085415;28;20039;-55
2021/04/30 02:52:16;;;;;;;1.17;0.90;;;23.60;37.20;;;;;;5085324;28;20127;-53
2021/04/30 02:54:42;;;;;;;1.30;0.85;;;23.60;37.20;;;;;;5083326;28;20030;-59
2021/04/30 02:57:08;;;;;;;1.13;0.80;;;23.60;37.20;;;;;;5084008;28;20032;-54
2021/04/30 02:59:34;;;;;;;1.17;0.73;;;23.60;37.20;;;;;;5085454;28;20055;-52
2021/04/30 03:02:02;;;;;;;1.25;0.82;;;23.50;37.20;;;;;;5073816;28;20062;-55
2021/04/30 03:04:27;;;;;;;1.67;0.77;;;23.50;37.20;;;;;;5085490;28;20454;-56
2021/04/30 03:06:53;;;;;;;1.20;0.88;;;23.50;37.70;;;;;;5082393;28;20250;-53
2021/04/30 03:09:19;;;;;;;1.05;0.70;;;23.50;37.80;;;;;;5085133;28;20029;-53
2021/04/30 03:11:44;;;;;;;1.52;0.70;;;23.50;37.80;;;;;;5063581;28;20063;-48
2021/04/30 03:14:10;;;;;;;1.20;0.75;;;23.40;37.20;;;;;;5081933;28;20135;-53
2021/04/30 03:16:36;;;;;;;2.55;1.00;;;23.40;37.20;;;;;;5081417;28;20035;-55
2021/04/30 03:19:02;;;;;;;1.85;0.80;;;23.50;37.30;;;;;;5089041;28;20024;-51
2021/04/30 03:21:27;;;;;;;0.95;0.70;;;23.40;37.20;;;;;;5084051;28;20024;-52
2021/04/30 03:23:53;;;;;;;0.90;0.73;;;23.40;37.30;;;;;;5073854;28;20067;-51
2021/04/30 03:26:19;;;;;;;0.65;0.60;;;23.40;37.30;;;;;;5079540;28;20024;-49
2021/04/30 03:28:44;;;;;;;0.88;0.70;;;23.40;37.30;;;;;;5083534;28;20028;-52
2021/04/30 03:31:10;;;;;;;1.60;0.70;;;23.40;37.30;;;;;;5085247;28;20486;-53
2021/04/30 03:33:37;;;;;;;1.27;0.77;;;23.40;37.30;;;;;;5089284;28;20035;-58
2021/04/30 03:36:04;;;;;;;1.15;0.80;;;23.30;37.30;;;;;;5087016;28;20024;-57
2021/04/30 03:38:30;;;;;;;0.85;0.75;;;23.40;37.30;;;;;;5090000;28;20111;-49
2021/04/30 03:40:56;;;;;;;0.90;0.70;;;23.40;37.30;;;;;;5087573;28;20503;-54
2021/04/30 03:43:21;;;;;;;1.23;0.80;;;23.30;37.30;;;;;;5081486;28;20028;-54
2021/04/30 03:45:50;;;;;;;1.20;0.80;;;23.30;37.30;;;;;;5081219;28;20960;-53
2021/04/30 03:48:20;;;;;;;0.88;0.70;;;23.30;37.30;;;;;;5084163;28;20055;-57
2021/04/30 03:50:45;;;;;;;1.02;0.80;;;23.30;37.30;;;;;;5085464;28;20111;-51
2021/04/30 03:53:11;;;;;;;1.20;1.00;;;23.30;37.30;;;;;;5086050;28;20115;-55
2021/04/30 03:55:37;;;;;;;1.45;0.90;;;23.30;37.40;;;;;;5086640;28;20039;-55
2021/04/30 03:58:03;;;;;;;0.70;0.70;;;23.30;37.30;;;;;;5086918;28;20051;-58
2021/04/30 04:00:28;;;;;;;0.90;0.70;;;23.20;37.30;;;;;;5086637;28;20038;-57
2021/04/30 04:02:54;;;;;;;1.02;0.70;;;23.30;37.40;;;;;;5079578;28;20043;-53
2021/04/30 04:05:20;;;;;;;0.95;0.70;;;23.20;37.40;;;;;;5072795;28;20043;-57
2021/04/30 04:07:45;;;;;;;1.25;0.70;;;23.20;37.40;;;;;;5080607;28;20032;-54
2021/04/30 04:10:11;;;;;;;0.88;0.70;;;23.20;37.40;;;;;;5087940;28;20024;-55
2021/04/30 04:12:38;;;;;;;1.35;0.75;;;23.20;37.40;;;;;;5089372;28;20031;-54
2021/04/30 04:15:05;;;;;;;0.85;0.70;;;23.20;37.40;;;;;;5088905;28;20024;-58
2021/04/30 04:17:30;;;;;;;1.33;0.80;;;23.20;37.40;;;;;;5086190;28;20040;-50
2021/04/30 04:19:56;;;;;;;1.00;0.80;;;23.20;37.40;;;;;;5078678;28;20031;-55
2021/04/30 04:22:22;;;;;;;0.70;0.70;;;23.10;37.70;;;;;;5086089;28;20028;-50
2021/04/30 04:24:47;;;;;;;1.13;0.70;;;23.10;37.40;;;;;;5087730;28;20047;-54
2021/04/30 04:27:13;;;;;;;1.27;0.77;;;23.10;37.40;;;;;;5086536;28;20118;-51
2021/04/30 04:29:39;;;;;;;1.20;0.85;;;23.10;37.40;;;;;;5086277;28;20054;-51
2021/04/30 04:32:05;;;;;;;0.95;0.70;;;23.10;37.40;;;;;;5087873;28;20101;-54
2021/04/30 04:34:31;;;;;;;1.10;0.70;;;23.10;37.50;;;;;;5086657;28;20066;-54
2021/04/30 04:36:57;;;;;;;1.13;0.80;;;23.10;37.50;;;;;;5087745;28;20119;-52
2021/04/30 04:39:25;;;;;;;1.10;0.80;;;23.10;37.50;;;;;;5084460;28;20060;-50
2021/04/30 04:41:51;;;;;;;1.55;0.70;;;23.00;37.40;;;;;;5087857;28;20028;-52
2021/04/30 04:44:17;;;;;;;0.82;0.70;;;23.00;37.50;;;;;;5085924;28;20048;-51
2021/04/30 04:46:43;;;;;;;1.08;0.80;;;23.00;37.50;;;;;;5086693;28;20036;-51
2021/04/30 04:49:09;;;;;;;0.70;0.70;;;23.00;37.50;;;;;;5085268;28;20039;-54
2021/04/30 04:51:34;;;;;;;1.00;0.70;;;23.00;37.50;;;;;;5081678;28;20428;-54
2021/04/30 04:54:01;;;;;;;1.23;0.82;;;23.00;37.50;;;;;;5081107;28;20504;-50
2021/04/30 04:56:27;;;;;;;0.95;0.75;;;23.00;37.50;;;;;;5086262;28;20071;-49
2021/04/30 04:58:54;;;;;;;0.93;0.60;;;23.00;37.50;;;;;;5088436;28;20507;-55
2021/04/30 05:01:20;;;;;;;1.23;0.90;;;23.00;37.50;;;;;;5085481;28;20032;-51
2021/04/30 05:03:46;;;;;;;1.20;0.80;;;23.00;37.50;;;;;;5086562;28;20065;-52
2021/04/30 05:06:12;;;;;;;1.20;0.80;;;23.00;37.50;;;;;;5085197;28;20048;-51
2021/04/30 05:08:37;;;;;;;0.90;0.80;;;23.00;37.50;;;;;;5087420;28;20032;-53
2021/04/30 05:11:06;;;;;;;0.73;0.70;;;22.90;37.40;;;;;;5085063;28;20108;-50
2021/04/30 05:13:32;;;;;;;0.90;0.70;;;22.90;37.50;;;;;;5086832;28;20107;-48
2021/04/30 05:15:59;;;;;;;0.90;0.70;;;22.90;37.50;;;;;;5083932;28;20069;-49
2021/04/30 05:18:25;;;;;;;1.08;0.70;;;22.90;37.50;;;;;;5075260;28;20059;-49
2021/04/30 05:20:52;;;;;;;0.80;0.70;;;22.90;37.50;;;;;;5085860;28;20028;-54
2021/04/30 05:23:18;;;;;;;1.23;0.80;;;22.80;37.40;;;;;;5086396;28;20036;-49
2021/04/30 05:25:44;;;;;;;0.98;0.70;;;22.80;37.40;;;;;;5078924;28;20047;-50
2021/04/30 05:28:10;;;;;;;0.85;0.70;;;22.90;37.50;;;;;;5087683;28;20471;-55
2021/04/30 05:30:35;;;;;;;0.70;0.70;;;22.80;37.50;;;;;;5078540;28;20127;-54
2021/04/30 05:33:01;;;;;;;0.75;0.65;;;22.80;37.50;;;;;;5087050;28;20115;-54
2021/04/30 05:35:27;;;;;;;1.23;0.77;;;22.80;37.50;;;;;;5085409;28;20028;-51
2021/04/30 05:37:53;;;;;;;1.42;0.70;;;22.80;37.60;;;;;;5086032;28;20123;-51
2021/04/30 05:40:19;;;;;;;0.70;0.65;;;22.80;37.50;;;;;;5073211;28;20123;-50
2021/04/30 05:42:44;;;;;;;1.27;0.70;;;22.80;37.50;;;;;;5075934;28;20115;-48
2021/04/30 05:45:11;;;;;;;0.70;0.68;;;22.80;37.60;;;;;;5086266;28;20503;-53
2021/04/30 05:47:37;;;;;;;0.60;0.60;;;22.80;37.50;;;;;;5087148;28;20036;-53
2021/04/30 05:50:04;;;;;;;1.00;0.77;;;22.80;37.60;;;;;;5086108;28;20023;-51
2021/04/30 05:52:30;;;;;;;1.05;0.68;;;22.80;37.60;;;;;;5085217;28;20054;-56
2021/04/30 05:54:55;;;;;;;0.98;0.70;;;22.70;37.50;;;;;;5086168;28;20043;-52
2021/04/30 05:57:21;;;;;;;1.67;0.80;;;22.70;37.50;;;;;;5086386;28;20049;-49
2021/04/30 05:59:47;;;;;;;1.17;0.70;;;22.70;37.50;;;;;;5086616;28;20377;-55
2021/04/30 06:02:12;;;;;;;1.33;0.70;;;22.70;37.60;;;;;;5081159;28;20941;-59
2021/04/30 06:04:38;;;;;;;0.80;0.60;;;22.70;37.60;;;;;;5086077;28;20123;-54
2021/04/30 06:07:04;;;;;;;0.98;0.70;;;22.70;37.60;;;;;;5085792;28;20035;-50
2021/04/30 06:09:29;;;;;;;0.75;0.60;;;22.70;37.60;;;;;;5086296;28;20181;-50
2021/04/30 06:11:55;;;;;;;0.60;0.60;;;22.70;37.60;;;;;;5086178;28;20032;-54
2021/04/30 06:14:25;;;;;;;1.10;0.75;;;22.70;37.60;;;;;;5084639;28;20051;-50
2021/04/30 06:16:51;;;;;;;0.93;0.60;;;22.70;37.60;;;;;;5076224;28;20049;-53
2021/04/30 06:19:17;;;;;;;1.25;0.70;;;22.70;37.70;;;;;;5086678;28;20103;-54
2021/04/30 06:21:42;;;;;;;0.90;0.60;;;22.70;37.70;;;;;;5084150;28;20020;-48
2021/04/30 06:24:08;;;;;;;0.73;0.70;;;22.60;37.60;;;;;;5086663;28;20503;-52
2021/04/30 06:26:34;;;;;;;1.00;0.65;;;22.60;37.60;;;;;;5085074;28;20035;-51
2021/04/30 06:29:00;;;;;;;1.38;0.57;;;22.60;37.70;;;;;;5086956;28;20465;-53
2021/04/30 06:31:25;;;;;;;0.77;0.60;;;22.60;37.60;;;;;;5085829;28;20047;-50
2021/04/30 06:33:51;;;;;;;0.90;0.60;;;22.60;37.70;;;;;;5085597;28;20050;-60
2021/04/30 06:36:17;;;;;;;0.70;0.60;;;22.60;37.70;;;;;;5075051;28;20120;-52
2021/04/30 06:38:42;;;;;;;1.88;0.77;;;22.60;37.70;;;;;;5085191;28;20028;-54
2021/04/30 06:41:08;;;;;;;0.73;0.60;;;22.60;37.70;;;;;;5082074;28;20063;-56
2021/04/30 06:43:34;;;;;;;0.93;0.68;;;22.60;37.70;;;;;;5085882;28;20032;-52
2021/04/30 06:45:59;;;;;;;1.00;0.70;;;22.60;37.70;;;;;;5083393;28;20032;-48
2021/04/30 06:48:25;;;;;;;0.90;0.70;;;22.60;37.80;;;;;;5085548;28;20038;-55
2021/04/30 06:50:51;;;;;;;1.27;0.70;;;22.60;37.70;;;;;;5068821;28;20121;-52
2021/04/30 06:53:17;;;;;;;1.00;0.70;;;22.60;37.80;;;;;;5085418;28;20024;-53
2021/04/30 06:55:43;;;;;;;0.80;0.60;;;22.60;37.80;;;;;;5085210;28;20028;-55
2021/04/30 06:58:08;;;;;;;1.23;0.73;;;22.60;37.80;;;;;;5085233;28;20028;-53
2021/04/30 07:00:35;;;;;;;0.68;0.60;;;22.60;37.80;;;;;;5083431;28;20095;-50
2021/04/30 07:03:00;;;;;;;1.08;0.70;;;22.60;37.80;;;;;;5084330;28;20478;-51
2021/04/30 07:05:26;;;;;;;1.05;0.60;;;22.60;37.80;;;;;;5085716;28;20048;-51
2021/04/30 07:07:56;;;;;;;1.63;0.90;;;22.50;37.80;;;;;;5081410;28;20038;-57
2021/04/30 07:10:23;;;;;;;1.25;0.70;;;22.50;37.80;;;;;;5084951;28;20046;-49
2021/04/30 07:12:49;;;;;;;1.02;0.80;;;22.50;37.70;;;;;;5082996;28;20024;-56
2021/04/30 07:15:15;;;;;;;0.75;0.60;;;22.50;37.80;;;;;;5078246;28;20039;-51
2021/04/30 07:17:41;;;;;;;1.20;0.80;;;22.50;37.80;;;;;;5083347;28;20089;-54
2021/04/30 07:20:09;;;;;;;1.25;0.70;;;22.50;37.80;;;;;;5082943;28;20028;-49
2021/04/30 07:22:34;;;;;;;1.27;0.70;;;22.50;37.80;;;;;;5081917;28;20787;-53
2021/04/30 07:25:00;;;;;;;0.60;0.60;;;22.50;37.80;;;;;;5083068;28;20032;-51
2021/04/30 07:27:26;;;;;;;1.17;0.63;;;22.50;37.80;;;;;;5083969;28;20486;-49
2021/04/30 07:29:51;;;;;;;1.13;0.65;;;22.50;37.80;;;;;;5079564;28;20112;-51
2021/04/30 07:32:17;;;;;;;1.05;0.70;;;22.50;37.80;;;;;;5079624;28;20054;-56
2021/04/30 07:34:43;;;;;;;1.35;0.77;;;22.50;37.80;;;;;;5061962;28;20024;-53
2021/04/30 07:37:09;;;;;;;1.15;0.80;;;22.50;37.80;;;;;;5075409;28;20040;-54
2021/04/30 07:39:35;;;;;;;1.20;0.70;;;22.50;37.80;;;;;;5079271;28;20035;-53
2021/04/30 07:42:01;;;;;;;1.10;0.70;;;22.50;37.90;;;;;;5082838;28;20066;-50
2021/04/30 07:44:27;;;;;;;1.70;1.00;;;22.50;37.90;;;;;;5078502;28;20047;-59
2021/04/30 07:46:53;;;;;;;1.85;0.90;;;22.50;37.90;;;;;;5080694;28;20054;-54
2021/04/30 07:49:18;;;;;;;1.75;1.00;;;22.40;37.90;;;;;;5077359;28;20048;-56
2021/04/30 07:51:44;;;;;;;1.48;0.80;;;22.40;37.90;;;;;;5078294;28;20028;-55
2021/04/30 07:54:11;;;;;;;1.40;0.90;;;22.50;38.00;;;;;;5078732;28;20056;-60
2021/04/30 07:56:37;;;;;;;1.10;0.80;;;22.40;37.90;;;;;;5081116;28;20056;-48
2021/04/30 07:59:02;;;;;;;1.33;0.82;;;22.40;37.90;;;;;;5077668;28;20100;-53
2021/04/30 08:01:29;;;;;;;2.05;0.90;;;22.40;37.90;;;;;;5066616;28;20111;-54
2021/04/30 08:03:55;;;;;;;1.65;0.82;;;22.40;37.90;;;;;;5082669;28;20028;-56
2021/04/30 08:06:21;;;;;;;1.38;0.77;;;22.40;37.90;;;;;;5086767;28;20077;-51
2021/04/30 08:08:46;;;;;;;1.08;0.70;;;22.40;37.90;;;;;;5084456;28;20111;-53
2021/04/30 08:11:12;;;;;;;1.23;0.88;;;22.40;37.80;;;;;;5063031;28;20124;-50
2021/04/30 08:13:38;;;;;;;2.22;0.90;;;22.40;37.80;;;;;;5086903;28;20047;-53
2021/04/30 08:16:04;;;;;;;1.42;0.80;;;22.40;37.80;;;;;;5086166;28;20201;-49
2021/04/30 08:18:30;;;;;;;2.15;0.90;;;22.40;37.80;;;;;;5084682;28;20806;-49
2021/04/30 08:20:56;;;;;;;1.70;0.70;;;22.40;37.80;;;;;;5088099;28;20165;-49
2021/04/30 08:23:22;;;;;;;1.35;0.70;;;22.40;37.80;;;;;;5069451;28;20512;-46
2021/04/30 08:25:48;;;;;;;1.80;1.05;;;22.40;37.70;;;;;;5086761;28;20385;-52
2021/04/30 08:28:13;;;;;;;1.70;1.00;;;22.40;37.70;;;;;;5075494;28;20034;-53
2021/04/30 08:30:39;;;;;;;0.98;0.70;;;22.40;37.70;;;;;;5086998;28;20036;-50
2021/04/30 08:33:05;;;;;;;2.60;0.90;;;22.40;37.70;;;;;;5086562;28;20047;-51
2021/04/30 08:35:31;;;;;;;1.77;1.00;;;22.40;37.70;;;;;;5084873;28;20114;-48
2021/04/30 08:37:57;;;;;;;1.10;0.90;;;22.40;37.70;;;;;;5086057;28;20085;-50
2021/04/30 08:40:22;;;;;;;1.88;0.80;;;22.40;38.20;;;;;;5086691;28;20242;-46
2021/04/30 08:42:50;;;;;;;1.00;0.60;;;22.30;37.60;;;;;;5085226;28;20036;-49
2021/04/30 08:45:17;;;;;;;1.63;0.80;;;22.40;37.70;;;;;;5083824;28;20031;-52
2021/04/30 08:47:44;;;;;;;1.75;1.10;;;22.30;37.60;;;;;;5085776;28;20115;-49
2021/04/30 08:50:10;;;;;;;1.10;0.70;;;22.30;37.60;;;;;;5073876;28;20039;-55
2021/04/30 08:52:36;;;;;;;2.13;0.75;;;22.30;37.60;;;;;;5082666;28;20024;-55
2021/04/30 08:55:09;;;;;;;3.00;0.88;;;22.30;37.60;;;;;;5079351;28;20047;-48
2021/04/30 08:57:35;;;;;;;1.40;0.68;;;22.30;37.70;;;;;;5079318;28;20043;-47
2021/04/30 09:00:02;;;;;;;2.30;0.90;;;22.30;37.60;;;;;;5086202;28;20036;-52
2021/04/30 09:02:31;;;;;;;1.33;0.70;;;22.30;37.60;;;;;;5084629;28;20032;-51
2021/04/30 09:04:58;;;;;;;0.98;0.77;;;22.30;37.70;;;;;;5073114;28;20040;-55
2021/04/30 09:07:25;;;;;;;1.83;0.80;;;22.30;37.70;;;;;;5083190;28;20473;-49
2021/04/30 09:10:03;;;;;;;2.03;0.75;;;22.30;37.70;;;;;;5085410;28;20031;-51
2021/04/30 09:12:29;;;;;;;2.13;0.95;;;22.30;37.70;;;;;;5083293;28;20050;-51
2021/04/30 09:14:56;;;;;;;3.08;1.10;;;22.30;37.70;;;;;;5069675;28;20120;-47
2021/04/30 09:17:22;;;;;;;1.10;0.80;;;22.30;37.70;;;;;;5085233;28;20117;-46
2021/04/30 09:19:51;;;;;;;1.00;0.73;;;22.30;37.70;;;;;;5085698;28;20031;-55
2021/04/30 09:22:24;;;;;;;1.70;0.70;;;22.30;37.80;;;;;;5085805;28;20047;-51
2021/04/30 09:24:54;;;;;;;2.38;0.85;;;22.30;37.70;;;;;;5077267;28;20382;-52
2021/04/30 09:27:39;;;;;;;1.33;0.80;;;22.30;37.80;;;;;;5085671;28;20028;-55
2021/04/30 09:30:26;;;;;;;1.85;0.80;;;22.30;37.80;;;;;;5082851;28;20020;-50
2021/04/30 09:33:11;;;;;;;1.83;1.08;;;22.30;37.80;;;;;;5067605;28;20372;-51
2021/04/30 09:35:45;;;;;;;1.63;0.80;;;22.30;37.80;;;;;;5067451;28;20425;-55
2021/04/30 09:38:23;;;;;;;4.03;1.17;;;22.30;37.80;;;;;;5079387;28;20032;-52
2021/04/30 09:40:51;;;;;;;1.85;0.90;;;22.30;37.80;;;;;;5086215;28;20097;-53
2021/04/30 09:43:18;;;;;;;1.33;0.80;;;22.30;37.80;;;;;;5085005;28;20059;-52
2021/04/30 09:45:46;;;;;;;2.08;0.70;;;22.30;37.80;;;;;;5065181;28;20849;-51
2021/04/30 09:48:13;;;;;;;1.60;0.82;;;22.30;37.80;;;;;;5082624;28;20047;-56
2021/04/30 09:50:41;;;;;;;1.80;0.90;;;22.30;37.80;;;;;;5084005;28;20129;-52
2021/04/30 09:53:10;;;;;;;2.33;0.93;;;22.30;37.90;;;;;;5084941;28;20078;-58
2021/04/30 09:55:47;;;;;;;;;;;22.30;37.90;;;;;;5085483;28;20074;-51
2021/04/30 09:58:20;;;;;;;1.63;0.88;;;22.30;37.90;;;;;;5085237;28;19919;-52
2021/04/30 10:00:51;;;;;;;2.08;0.85;;;22.30;37.90;;;;;;5081093;28;20043;-50
2021/04/30 10:03:26;;;;;;;2.22;1.00;;;22.30;37.90;;;;;;5079336;28;20408;-56
2021/04/30 10:06:20;;;;;;;1.73;0.73;;;22.30;38.00;;;;;;5083787;28;20039;-52
2021/04/30 10:09:06;;;;;;;1.50;0.70;;;22.30;38.00;;;;;;5086036;28;20032;-54
2021/04/30 10:11:35;;;;;;;1.58;0.88;;;22.30;38.00;;;;;;5086374;28;20089;-49
2021/04/30 10:14:02;;;;;;;1.00;0.70;;;22.30;37.90;;;;;;5082719;28;20016;-53
2021/04/30 10:16:28;;;;;;;1.95;0.77;;;22.30;38.00;;;;;;5084547;28;20119;-51
2021/04/30 10:18:54;;;;;;;1.20;0.75;;;22.30;38.00;;;;;;5083630;28;20036;-54
2021/04/30 10:21:20;;;;;;;1.50;0.80;;;22.30;38.00;;;;;;5076239;28;20499;-49
2021/04/30 10:23:50;;;;;;;1.52;0.80;;;22.30;38.00;;;;;;5084337;28;20039;-51
2021/04/30 10:26:17;;;;;;;1.42;0.80;;;22.30;38.00;;;;;;5083504;28;20036;-56
2021/04/30 10:28:48;;;;;;;1.02;0.82;;;22.30;38.00;;;;;;5085305;28;20089;-51
2021/04/30 10:31:17;;;;;;;2.00;0.82;;;22.30;37.90;;;;;;5085255;28;20364;-50
2021/04/30 10:33:53;;;;;;;1.50;0.93;;;22.30;37.90;;;;;;5084303;28;20057;-50
2021/04/30 10:36:26;;;;;;;2.05;0.90;;;22.30;37.90;;;;;;5082520;28;20039;-52
2021/04/30 10:38:56;;;;;;;1.45;0.70;;;22.30;37.90;;;;;;5082656;28;20036;-50
2021/04/30 10:41:39;;;;;;;2.33;0.90;;;22.30;37.90;;;;;;5078012;28;20392;-58
2021/04/30 10:44:10;;;;;;;2.00;1.02;;;22.30;37.90;;;;;;5082617;28;20051;-52
2021/04/30 10:46:36;;;;;;;2.67;1.00;;;22.30;37.90;;;;;;5082045;28;20028;-49
2021/04/30 10:49:05;;;;;;;2.13;0.90;;;22.30;37.90;;;;;;5065791;28;20035;-53
2021/04/30 10:51:36;;;;;;;2.22;0.93;;;22.30;37.90;;;;;;5079013;28;20322;-54
2021/04/30 10:54:30;;;;;;;2.10;1.40;;;22.30;37.60;;;;;;5086387;28;20112;-50
2021/04/30 10:57:06;;;;;;;3.35;2.13;;;22.30;36.70;;;;;;5082399;28;20032;-51
2021/04/30 10:59:40;;;;;;;3.05;2.13;;;22.30;35.80;;;;;;5082902;28;20035;-55
2021/04/30 11:02:08;;;;;;;3.80;2.40;;;22.30;35.40;;;;;;5074528;28;20036;-48
2021/04/30 11:04:34;;;;;;;3.97;2.70;;;22.20;35.20;;;;;;5080776;28;20458;-49
2021/04/30 11:07:00;;;;;;;5.30;2.70;;;22.20;35.00;;;;;;5071985;28;20325;-51
2021/04/30 11:09:33;;;;;;;3.97;2.47;;;22.20;34.90;;;;;;5054758;28;20118;-50
2021/04/30 11:12:01;;;;;;;4.53;2.22;;;22.20;35.00;;;;;;5069883;28;20032;-52
2021/04/30 11:14:28;;;;;;;4.80;1.98;;;22.20;35.20;;;;;;5076351;28;20130;-52
2021/04/30 11:16:55;;;;;;;2.83;1.60;;;22.20;35.30;;;;;;5078637;28;20108;-52
2021/04/30 11:19:23;;;;;;;2.75;1.48;;;22.20;35.50;;;;;;5075273;28;20462;-47
2021/04/30 11:21:52;;;;;;;4.32;1.98;;;22.20;35.50;;;;;;5081177;28;20030;-53
2021/04/30 11:24:32;;;;;;;2.03;1.27;;;22.20;35.70;;;;;;5062589;28;20032;-50
2021/04/30 11:27:17;;;;;;;1.95;1.20;;;22.20;35.80;;;;;;5079925;28;20028;-52
2021/04/30 11:29:43;;;;;;;2.35;1.30;;;22.20;36.00;;;;;;5079201;28;20035;-48
2021/04/30 11:32:21;;;;;;;2.88;1.10;;;22.20;36.10;;;;;;5080080;28;20529;-58
2021/04/30 11:35:00;;;;;;;1.83;0.93;;;22.30;36.30;;;;;;5093960;28;20492;-49
2021/04/30 11:37:34;;;;;;;2.20;1.10;;;22.20;36.30;;;;;;5103559;28;20545;-49
2021/04/30 11:40:00;;;;;;;2.33;0.98;;;22.30;36.50;;;;;;5087578;28;20028;-52
2021/04/30 11:42:30;;;;;;;1.20;0.80;;;22.30;36.60;;;;;;5091216;28;20135;-52
2021/04/30 11:44:56;;;;;;;1.63;0.88;;;22.30;36.70;;;;;;5092375;28;20032;-50
2021/04/30 11:47:32;;;;;;;2.03;0.85;;;22.30;36.80;;;;;;5096232;28;20045;-50
2021/04/30 11:49:59;;;;;;;0.77;0.73;;;22.30;36.90;;;;;;5094002;28;20032;-55
2021/04/30 11:52:38;;;;;;;1.50;0.82;;;22.30;36.90;;;;;;5098420;28;20031;-51
2021/04/30 11:55:07;;;;;;;2.10;0.95;;;22.30;37.00;;;;;;5098041;28;20046;-56
2021/04/30 11:57:34;;;;;;;1.58;1.00;;;22.30;37.00;;;;;;5082449;28;20521;-53
2021/04/30 12:00:00;;;;;;;1.83;0.90;;;22.30;37.10;;;;;;5084722;28;20082;-51
2021/04/30 12:02:27;;;;;;;2.22;0.90;;;22.30;37.10;;;;;;5077027;28;20127;-52
2021/04/30 12:04:56;;;;;;;1.60;0.90;;;22.30;37.10;;;;;;5081469;28;20119;-54
2021/04/30 12:07:24;;;;;;;1.25;0.90;;;22.30;37.20;;;;;;5077825;28;20791;-52
2021/04/30 12:09:51;;;;;;;1.00;0.70;;;22.30;37.20;;;;;;5081761;28;20032;-52
2021/04/30 12:12:21;;;;;;;1.70;0.80;;;22.30;37.20;;;;;;5084020;28;20032;-54
2021/04/30 12:14:49;;;;;;;1.42;0.80;;;22.40;37.30;;;;;;5082557;28;20035;-51
2021/04/30 12:17:36;;;;;;;1.55;0.88;;;22.30;37.30;;;;;;5084147;28;20119;-52
2021/04/30 12:20:13;;;;;;;1.52;0.80;;;22.40;37.40;;;;;;5083918;28;20344;-51
2021/04/30 12:22:54;;;;;;;2.60;0.90;;;22.40;37.40;;;;;;5083392;28;20540;-57
2021/04/30 12:25:27;;;;;;;1.30;0.98;;;22.30;37.40;;;;;;5081717;28;20102;-56
2021/04/30 12:28:12;;;;;;;1.38;0.82;;;22.40;37.50;;;;;;5081896;28;20051;-50
2021/04/30 12:30:38;;;;;;;1.05;0.82;;;22.40;37.50;;;;;;5078864;28;20032;-52
2021/04/30 12:33:04;;;;;;;3.25;1.65;;;22.40;37.60;;;;;;5057187;28;20061;-54
2021/04/30 12:35:30;;;;;;;2.50;1.00;;;22.40;37.60;;;;;;5061545;28;20031;-51
2021/04/30 12:37:56;;;;;;;2.22;0.85;;;22.40;37.60;;;;;;5060098;28;20032;-51
2021/04/30 12:40:28;;;;;;;1.52;0.85;;;22.40;37.60;;;;;;5056469;28;20059;-55
2021/04/30 12:42:55;;;;;;;1.92;0.90;;;22.50;37.70;;;;;;5063042;28;20751;-56
2021/04/30 12:45:22;;;;;;;1.45;0.98;;;22.40;38.20;;;;;;5063925;28;20214;-52
2021/04/30 12:47:51;;;;;;;2.17;0.90;;;22.50;37.60;;;;;;5061803;28;20507;-57
2021/04/30 12:50:18;;;;;;;1.35;0.90;;;22.40;37.70;;;;;;5063981;28;20517;-51